Navigator B — T2RQ4 — position and weather

sailwx.info

Track history (hours):
 
Tides and Currents Weather Stations Pressure Air Temp Water Temp Dewpoint Dewpoint Depression Visibility Wind Speed Wind Dir Waves Ship Positions

Navigator B

Last reported at 2018-Jun-12 18:40 UTC. Time now 2018-Jun-22 07:36 UTC.
Position N 01°22' E 103°17'.
Warning: this ship's position is 9 days out of date.

Length 169 m; draft 9 m.

Type: Cargo ship. MMSI: 572728210.

Date/timePositionNaut miles runAvg speedWind from/ knotsBaromVisibWave heightAir tempDewpointWater temp
2018-Jun-12 18:40N 01°22' E 103°17'211.8
2018-Jun-12 18:29N 01°20' E 103°19'511.4
2018-Jun-12 18:00N 01°16' E 103°23'510.5
2018-Jun-12 17:29N 01°14' E 103°28'510.6
2018-Jun-12 17:00N 01°13' E 103°33'5 9.5
2018-Jun-12 16:31N 01°11' E 103°37'5 9.7
2018-Jun-12 15:59N 01°09' E 103°42'4 7.7
2018-Jun-12 15:30N 01°09' E 103°45'4 8.1
2018-Jun-12 15:00N 01°11' E 103°49'2 4.0
2018-Jun-12 14:30N 01°13' E 103°49'1 0.8
2018-Jun-12 13:45N 01°13' E 103°49'0 0.2
2018-Jun-12 13:26N 01°13' E 103°49'0 0.0
2018-Jun-12 12:57N 01°13' E 103°49'0 0.0
2018-Jun-12 12:22N 01°13' E 103°49'1 1.7
2018-Jun-12 11:59N 01°13' E 103°50'3 5.8
2018-Jun-12 11:30N 01°14' E 103°52'2 3.1
2018-Jun-12 11:00N 01°15' E 103°52'0 0.1
2018-Jun-12 10:30N 01°15' E 103°52'0 0.0
2018-Jun-12 09:57N 01°15' E 103°52'0 0.1
2018-Jun-12 09:19N 01°15' E 103°52'0 0.1
2018-Jun-12 08:55N 01°15' E 103°52'0 0.1
2018-Jun-12 08:23N 01°15' E 103°52'0 0.0
2018-Jun-12 07:55N 01°15' E 103°52'0 0.1
2018-Jun-12 07:30N 01°15' E 103°52'0 0.1
2018-Jun-12 07:00N 01°15' E 103°52'0 0.1
2018-Jun-12 06:26N 01°15' E 103°52'0 0.0
2018-Jun-12 05:54N 01°15' E 103°52'0 0.0
2018-Jun-12 05:30N 01°15' E 103°52'0 0.1
2018-Jun-12 04:58N 01°15' E 103°52'0 0.0
2018-Jun-12 04:25N 01°15' E 103°52'0 0.1
2018-Jun-12 03:56N 01°15' E 103°52'0 0.2
2018-Jun-12 03:24N 01°15' E 103°52'0 0.1
2018-Jun-12 02:52N 01°15' E 103°52'0 0.0
2018-Jun-12 02:27N 01°15' E 103°52'0 0.0
2018-Jun-12 02:00N 01°15' E 103°52'0 0.0
2018-Jun-12 01:29N 01°15' E 103°52'0 0.0
2018-Jun-12 00:58N 01°15' E 103°52'0 0.0
2018-Jun-12 00:30N 01°15' E 103°52'0 0.0
2018-Jun-11 23:48N 01°15' E 103°52'0 0.2
2018-Jun-11 23:24N 01°15' E 103°52'0 0.1
2018-Jun-11 22:44N 01°15' E 103°52'0 0.3
2018-Jun-11 22:29N 01°15' E 103°52'0 0.0
2018-Jun-11 21:54N 01°15' E 103°52'0 0.0
2018-Jun-11 21:31N 01°15' E 103°52'0 0.1
2018-Jun-11 20:51N 01°15' E 103°52'0 0.0
2018-Jun-11 20:27N 01°15' E 103°52'0 0.2
2018-Jun-11 19:59N 01°15' E 103°52'1 1.3
2018-Jun-11 19:30N 01°15' E 103°52'3 5.3
2018-Jun-11 19:00N 01°12' E 103°51'2 3.7
2018-Jun-11 18:30N 01°13' E 103°50'0 0.2
2018-Jun-11 17:50N 01°13' E 103°49'0 0.1
2018-Jun-11 17:18N 01°13' E 103°49'0 0.0
2018-Jun-11 16:54N 01°13' E 103°49'0 0.1
2018-Jun-11 16:23N 01°13' E 103°49'0 0.2
2018-Jun-11 16:00N 01°13' E 103°49'1 2.6
2018-Jun-11 15:30N 01°12' E 103°51'3 5.6
2018-Jun-11 15:00N 01°14' E 103°53'2 4.2
2018-Jun-11 14:24N 01°14' E 103°55'2 3.4
2018-Jun-11 13:58N 01°15' E 103°57'2 4.2
2018-Jun-11 13:29N 01°15' E 103°59'2 4.7
2018-Jun-11 13:00N 01°16' E 104°01'3 5.9
2018-Jun-11 12:30N 01°16' E 104°04'3 5.6
2018-Jun-11 11:59N 01°17' E 104°07'3 5.8
2018-Jun-11 11:30N 01°17' E 104°10'3 5.8
2018-Jun-11 11:00N 01°18' E 104°12'3 5.9
2018-Jun-11 10:30N 01°18' E 104°15'3 5.4
2018-Jun-11 09:58N 01°19' E 104°18'1 0.6
2018-Jun-11 07:57N 01°20' E 104°19'0 0.1
2018-Jun-11 06:05N 01°20' E 104°19'0 0.0
2018-Jun-11 05:50N 01°20' E 104°19'0 0.0
2018-Jun-11 01:10N 01°20' E 104°19'0 0.0
2018-Jun-11 00:47N 01°20' E 104°19'0 0.0
2018-Jun-11 00:18N 01°20' E 104°19'0 0.0
2018-Jun-10 18:15N 01°20' E 104°19'0 0.0
2018-Jun-10 17:53N 01°20' E 104°19'0 0.0
2018-Jun-10 08:59N 01°20' E 104°19'0 0.0
2018-Jun-10 06:01N 01°20' E 104°19'0 0.0
2018-Jun-10 05:58N 01°20' E 104°19'0 0.0
2018-Jun-10 05:25N 01°20' E 104°19'0 0.0
2018-Jun-10 04:58N 01°20' E 104°19'0 0.7
2018-Jun-10 04:30N 01°20' E 104°19'2 4.1
2018-Jun-10 03:56N 01°21' E 104°21'3 7.5
2018-Jun-10 03:29N 01°23' E 104°24'  
Track history (hours):
 
Tides and Currents Weather Stations Pressure Air Temp Water Temp Dewpoint Dewpoint Depression Visibility Wind Speed Wind Dir Waves Ship Positions

Navigator B

Last reported at 2018-Jun-12 18:40 UTC. Time now 2018-Jun-22 07:36 UTC.
Position N 01°22' E 103°17'.
Warning: this ship's position is 9 days out of date.

Length 169 m; draft 9 m.

Type: Cargo ship. MMSI: 572728210.

Date/timePositionNaut miles runAvg speedWind from/ knotsBaromVisibWave heightAir tempDewpointWater temp
2018-Jun-12 18:40N 01°22' E 103°17'211.8
2018-Jun-12 18:29N 01°20' E 103°19'511.4
2018-Jun-12 18:00N 01°16' E 103°23'510.5
2018-Jun-12 17:29N 01°14' E 103°28'510.6
2018-Jun-12 17:00N 01°13' E 103°33'5 9.5
2018-Jun-12 16:31N 01°11' E 103°37'5 9.7
2018-Jun-12 15:59N 01°09' E 103°42'4 7.7
2018-Jun-12 15:30N 01°09' E 103°45'4 8.1
2018-Jun-12 15:00N 01°11' E 103°49'2 4.0
2018-Jun-12 14:30N 01°13' E 103°49'1 0.8
2018-Jun-12 13:45N 01°13' E 103°49'0 0.2
2018-Jun-12 13:26N 01°13' E 103°49'0 0.0
2018-Jun-12 12:57N 01°13' E 103°49'0 0.0
2018-Jun-12 12:22N 01°13' E 103°49'1 1.7
2018-Jun-12 11:59N 01°13' E 103°50'3 5.8
2018-Jun-12 11:30N 01°14' E 103°52'2 3.1
2018-Jun-12 11:00N 01°15' E 103°52'0 0.1
2018-Jun-12 10:30N 01°15' E 103°52'0 0.0
2018-Jun-12 09:57N 01°15' E 103°52'0 0.1
2018-Jun-12 09:19N 01°15' E 103°52'0 0.1
2018-Jun-12 08:55N 01°15' E 103°52'0 0.1
2018-Jun-12 08:23N 01°15' E 103°52'0 0.0
2018-Jun-12 07:55N 01°15' E 103°52'0 0.1
2018-Jun-12 07:30N 01°15' E 103°52'0 0.1
2018-Jun-12 07:00N 01°15' E 103°52'0 0.1
2018-Jun-12 06:26N 01°15' E 103°52'0 0.0
2018-Jun-12 05:54N 01°15' E 103°52'0 0.0
2018-Jun-12 05:30N 01°15' E 103°52'0 0.1
2018-Jun-12 04:58N 01°15' E 103°52'0 0.0
2018-Jun-12 04:25N 01°15' E 103°52'0 0.1
2018-Jun-12 03:56N 01°15' E 103°52'0 0.2
2018-Jun-12 03:24N 01°15' E 103°52'0 0.1
2018-Jun-12 02:52N 01°15' E 103°52'0 0.0
2018-Jun-12 02:27N 01°15' E 103°52'0 0.0
2018-Jun-12 02:00N 01°15' E 103°52'0 0.0
2018-Jun-12 01:29N 01°15' E 103°52'0 0.0
2018-Jun-12 00:58N 01°15' E 103°52'0 0.0
2018-Jun-12 00:30N 01°15' E 103°52'0 0.0
2018-Jun-11 23:48N 01°15' E 103°52'0 0.2
2018-Jun-11 23:24N 01°15' E 103°52'0 0.1
2018-Jun-11 22:44N 01°15' E 103°52'0 0.3
2018-Jun-11 22:29N 01°15' E 103°52'0 0.0
2018-Jun-11 21:54N 01°15' E 103°52'0 0.0
2018-Jun-11 21:31N 01°15' E 103°52'0 0.1
2018-Jun-11 20:51N 01°15' E 103°52'0 0.0
2018-Jun-11 20:27N 01°15' E 103°52'0 0.2
2018-Jun-11 19:59N 01°15' E 103°52'1 1.3
2018-Jun-11 19:30N 01°15' E 103°52'3 5.3
2018-Jun-11 19:00N 01°12' E 103°51'2 3.7
2018-Jun-11 18:30N 01°13' E 103°50'0 0.2
2018-Jun-11 17:50N 01°13' E 103°49'0 0.1
2018-Jun-11 17:18N 01°13' E 103°49'0 0.0
2018-Jun-11 16:54N 01°13' E 103°49'0 0.1
2018-Jun-11 16:23N 01°13' E 103°49'0 0.2
2018-Jun-11 16:00N 01°13' E 103°49'1 2.6
2018-Jun-11 15:30N 01°12' E 103°51'3 5.6
2018-Jun-11 15:00N 01°14' E 103°53'2 4.2
2018-Jun-11 14:24N 01°14' E 103°55'2 3.4
2018-Jun-11 13:58N 01°15' E 103°57'2 4.2
2018-Jun-11 13:29N 01°15' E 103°59'2 4.7
2018-Jun-11 13:00N 01°16' E 104°01'3 5.9
2018-Jun-11 12:30N 01°16' E 104°04'3 5.6
2018-Jun-11 11:59N 01°17' E 104°07'3 5.8
2018-Jun-11 11:30N 01°17' E 104°10'3 5.8
2018-Jun-11 11:00N 01°18' E 104°12'3 5.9
2018-Jun-11 10:30N 01°18' E 104°15'3 5.4
2018-Jun-11 09:58N 01°19' E 104°18'1 0.6
2018-Jun-11 07:57N 01°20' E 104°19'0 0.1
2018-Jun-11 06:05N 01°20' E 104°19'0 0.0
2018-Jun-11 05:50N 01°20' E 104°19'0 0.0
2018-Jun-11 01:10N 01°20' E 104°19'0 0.0
2018-Jun-11 00:47N 01°20' E 104°19'0 0.0
2018-Jun-11 00:18N 01°20' E 104°19'0 0.0
2018-Jun-10 18:15N 01°20' E 104°19'0 0.0
2018-Jun-10 17:53N 01°20' E 104°19'0 0.0
2018-Jun-10 08:59N 01°20' E 104°19'0 0.0
2018-Jun-10 06:01N 01°20' E 104°19'0 0.0
2018-Jun-10 05:58N 01°20' E 104°19'0 0.0
2018-Jun-10 05:25N 01°20' E 104°19'0 0.0
2018-Jun-10 04:58N 01°20' E 104°19'0 0.7
2018-Jun-10 04:30N 01°20' E 104°19'2 4.1
2018-Jun-10 03:56N 01°21' E 104°21'3 7.5
2018-Jun-10 03:29N 01°23' E 104°24'  

Dump ship's entire track history